Terminal Aerodrome Forecast
Issued by NWS

Home | Current Version | Previous Version | Graphics & Text | Print | Product List | Glossary On
Versions: 1 2 3 4 5 6 7 8 9 10 11 12 13
000
FTUS43 KICT 140500
TAFCNU
TAF
KCNU 140522Z 1406/1506 34020G28KT P6SM OVC014
     FM141300 35024G33KT 5SM -RA OVC012
     FM141500 36023G33KT 5SM -RASN BKN009 OVC014
     FM141800 34020G30KT 5SM -RA OVC012
     FM142300 33012KT P6SM SCT020 BKN035=

USA.gov is the U.S. government's official web portal to all federal, state and local government web resources and services.